createdAt,value
2023-01-23T00:01:30.144Z,0.80
2023-01-23T00:03:57.524Z,0.80
2023-01-23T00:06:25.313Z,0.80
2023-01-23T00:08:51.987Z,0.80
2023-01-23T00:11:23.788Z,0.90
2023-01-23T00:13:51.152Z,0.80
2023-01-23T00:16:21.321Z,0.80
2023-01-23T00:18:48.382Z,0.90
2023-01-23T00:21:17.723Z,0.90
2023-01-23T00:23:46.310Z,0.90
2023-01-23T00:26:15.667Z,1.00
2023-01-23T00:28:43.340Z,1.00
2023-01-23T00:31:13.150Z,0.90
2023-01-23T00:33:44.485Z,0.90
2023-01-23T00:36:12.696Z,0.90
2023-01-23T00:38:39.811Z,0.90
2023-01-23T00:41:06.619Z,0.90
2023-01-23T00:43:33.588Z,0.80
2023-01-23T00:46:00.535Z,0.80
2023-01-23T00:48:27.295Z,0.70
2023-01-23T00:50:54.099Z,0.70
2023-01-23T00:53:21.615Z,0.70
2023-01-23T00:55:48.493Z,0.60
2023-01-23T00:58:15.454Z,0.60
2023-01-23T01:00:42.170Z,0.60
2023-01-23T01:03:09.203Z,0.60
2023-01-23T01:05:35.933Z,0.60
2023-01-23T01:08:02.607Z,0.70
2023-01-23T01:10:30.391Z,0.70
2023-01-23T01:12:58.385Z,0.70
2023-01-23T01:15:25.857Z,0.70
2023-01-23T01:17:55.510Z,0.60
2023-01-23T01:20:23.850Z,0.60
2023-01-23T01:22:50.767Z,0.50
2023-01-23T01:25:17.931Z,0.50
2023-01-23T01:27:44.833Z,0.50
2023-01-23T01:30:12.379Z,0.60
2023-01-23T01:32:41.207Z,0.60
2023-01-23T01:35:08.659Z,0.50
2023-01-23T01:37:37.489Z,0.50
2023-01-23T01:40:09.225Z,0.50
2023-01-23T01:42:44.148Z,0.50
2023-01-23T01:45:48.440Z,0.50
2023-01-23T01:48:15.930Z,0.60
2023-01-23T01:50:43.186Z,0.60
2023-01-23T01:53:11.638Z,0.70
2023-01-23T01:55:39.557Z,0.60
2023-01-23T01:58:07.245Z,0.50
2023-01-23T02:00:33.913Z,0.40
2023-01-23T02:03:03.351Z,0.50
2023-01-23T02:05:50.499Z,0.50
2023-01-23T02:08:39.845Z,0.50
2023-01-23T02:11:06.949Z,0.50
2023-01-23T02:13:38.691Z,0.60
2023-01-23T02:16:17.791Z,0.60
2023-01-23T02:18:47.923Z,0.60
2023-01-23T02:21:19.400Z,0.70
2023-01-23T02:24:08.097Z,0.70
2023-01-23T02:26:40.347Z,0.70
2023-01-23T02:29:08.041Z,0.70
2023-01-23T02:31:35.231Z,0.70
2023-01-23T02:34:01.990Z,0.70
2023-01-23T02:36:32.484Z,0.70
2023-01-23T02:39:01.775Z,0.70
2023-01-23T02:41:33.001Z,0.70
2023-01-23T02:44:04.804Z,0.70
2023-01-23T02:46:31.720Z,0.70
2023-01-23T02:48:58.457Z,0.70
2023-01-23T02:51:25.299Z,0.70
2023-01-23T02:53:52.086Z,0.70
2023-01-23T02:56:19.816Z,0.60
2023-01-23T02:59:04.796Z,0.70
2023-01-23T03:01:33.616Z,0.70
2023-01-23T03:04:04.093Z,0.70
2023-01-23T03:06:36.094Z,0.70
2023-01-23T03:09:05.528Z,0.80
2023-01-23T03:11:32.675Z,0.80
2023-01-23T03:14:00.099Z,0.80
2023-01-23T03:16:27.235Z,0.70
2023-01-23T03:18:55.014Z,0.60
2023-01-23T03:21:22.156Z,0.60
2023-01-23T03:23:48.732Z,0.60
2023-01-23T03:26:16.013Z,0.60
2023-01-23T03:29:01.420Z,0.60
2023-01-23T03:31:28.259Z,0.60
2023-01-23T03:33:54.894Z,0.70
2023-01-23T03:36:21.526Z,0.70
2023-01-23T03:39:06.762Z,0.70
2023-01-23T03:41:33.388Z,0.70
2023-01-23T03:43:59.934Z,0.60
2023-01-23T03:46:26.528Z,0.60
2023-01-23T03:48:53.233Z,0.40
2023-01-23T03:51:19.864Z,0.50
2023-01-23T03:53:46.510Z,0.40
2023-01-23T03:56:13.213Z,0.40
2023-01-23T03:58:39.814Z,0.50
2023-01-23T04:01:08.104Z,0.40
2023-01-23T04:03:35.008Z,0.50
2023-01-23T04:06:01.942Z,0.50
2023-01-23T04:08:29.440Z,0.50
2023-01-23T04:11:04.276Z,0.60
2023-01-23T04:13:31.409Z,0.60
2023-01-23T04:15:58.654Z,0.60
2023-01-23T04:18:25.378Z,0.50
2023-01-23T04:20:52.057Z,0.50
2023-01-23T04:23:18.804Z,0.50
2023-01-23T04:25:45.483Z,0.50
2023-01-23T04:28:12.470Z,0.40
2023-01-23T04:30:39.209Z,0.50
2023-01-23T04:33:06.066Z,0.50
2023-01-23T04:35:32.697Z,0.50
2023-01-23T04:37:59.531Z,0.50
2023-01-23T04:40:26.788Z,0.40
2023-01-23T04:42:53.916Z,0.40
2023-01-23T04:45:20.661Z,0.50
2023-01-23T04:47:47.250Z,0.50
2023-01-23T04:50:13.873Z,0.50
2023-01-23T04:52:40.494Z,0.50
2023-01-23T04:55:07.464Z,0.50
2023-01-23T04:57:34.047Z,0.50
2023-01-23T05:00:00.884Z,0.50
2023-01-23T05:02:27.666Z,0.40
2023-01-23T05:04:54.356Z,0.40
2023-01-23T05:07:20.952Z,0.40
2023-01-23T05:09:47.521Z,0.30
2023-01-23T05:12:15.221Z,0.30
2023-01-23T05:14:42.060Z,0.40
2023-01-23T05:17:08.663Z,0.40
2023-01-23T05:19:35.228Z,0.50
2023-01-23T05:22:01.939Z,0.40
2023-01-23T05:24:28.538Z,0.30
2023-01-23T05:26:55.183Z,0.40
2023-01-23T05:29:21.834Z,0.50
2023-01-23T05:31:48.494Z,0.40
2023-01-23T05:34:15.080Z,0.40
2023-01-23T05:36:41.673Z,0.40
2023-01-23T05:39:08.244Z,0.30
2023-01-23T05:41:34.834Z,0.30
2023-01-23T05:44:01.469Z,0.30
2023-01-23T05:46:28.165Z,0.40
2023-01-23T05:48:54.835Z,0.30
2023-01-23T05:51:23.197Z,0.40
2023-01-23T05:53:49.914Z,0.40
2023-01-23T05:56:16.524Z,0.40
2023-01-23T05:58:43.156Z,0.40
2023-01-23T06:01:09.753Z,0.40
2023-01-23T06:03:36.451Z,0.30
2023-01-23T06:06:03.088Z,0.30
2023-01-23T06:08:29.754Z,0.20
2023-01-23T06:10:58.791Z,0.30
2023-01-23T06:13:26.928Z,0.30
2023-01-23T06:15:53.595Z,0.30
2023-01-23T06:18:20.792Z,0.20
2023-01-23T06:20:47.737Z,0.20
2023-01-23T06:23:14.902Z,0.20
2023-01-23T06:25:41.822Z,0.20
2023-01-23T06:28:09.029Z,0.20
2023-01-23T06:30:36.773Z,0.10
2023-01-23T06:33:03.360Z,0.20
2023-01-23T06:35:29.926Z,0.10
2023-01-23T06:37:56.485Z,0.10
2023-01-23T06:40:23.063Z,0.20
2023-01-23T06:42:50.957Z,0.20
2023-01-23T06:45:17.770Z,0.20
2023-01-23T06:47:44.456Z,0.10
2023-01-23T06:50:11.446Z,-0.10
2023-01-23T06:52:38.035Z,-0.10
2023-01-23T06:55:06.505Z,-0.20
2023-01-23T06:57:34.051Z,-0.20
2023-01-23T07:00:00.644Z,-0.20
2023-01-23T07:02:27.441Z,-0.20
2023-01-23T07:04:54.140Z,-0.20
2023-01-23T07:07:20.772Z,-0.20
2023-01-23T07:09:47.369Z,-0.30
2023-01-23T07:12:14.038Z,-0.40
2023-01-23T07:14:40.611Z,-0.30
2023-01-23T07:17:07.192Z,-0.40
2023-01-23T07:19:33.793Z,-0.30
2023-01-23T07:22:01.240Z,-0.40
2023-01-23T07:24:29.915Z,-0.20
2023-01-23T07:26:56.520Z,-0.30
2023-01-23T07:29:23.311Z,-0.30
2023-01-23T07:31:49.965Z,-0.40
2023-01-23T07:34:16.746Z,-0.30
2023-01-23T07:36:43.361Z,-0.30
2023-01-23T07:39:09.981Z,-0.30
2023-01-23T07:41:36.535Z,-0.30
2023-01-23T07:44:03.134Z,-0.30
2023-01-23T07:46:30.190Z,-0.30
2023-01-23T07:48:56.899Z,-0.30
2023-01-23T07:51:23.587Z,-0.30
2023-01-23T07:53:50.179Z,-0.30
2023-01-23T07:56:16.719Z,-0.30
2023-01-23T07:58:43.278Z,-0.30
2023-01-23T08:01:10.898Z,-0.30
2023-01-23T08:03:37.858Z,-0.30
2023-01-23T08:06:04.578Z,-0.30
2023-01-23T08:08:31.185Z,-0.30
2023-01-23T08:10:57.875Z,-0.40
2023-01-23T08:13:24.564Z,-0.50
2023-01-23T08:15:53.291Z,-0.50
2023-01-23T08:18:20.048Z,-0.40
2023-01-23T08:20:53.333Z,-0.40
2023-01-23T08:23:19.909Z,-0.40
2023-01-23T08:25:46.479Z,-0.40
2023-01-23T08:28:13.040Z,-0.40
2023-01-23T08:30:39.674Z,-0.40
2023-01-23T08:33:06.337Z,-0.40
2023-01-23T08:35:32.920Z,-0.40
2023-01-23T08:38:00.314Z,-0.40
2023-01-23T08:40:26.893Z,-0.50
2023-01-23T08:42:54.284Z,-0.50
2023-01-23T08:45:22.297Z,-0.50
2023-01-23T08:47:48.865Z,-0.50
2023-01-23T08:50:15.792Z,-0.40
2023-01-23T08:52:42.421Z,-0.50
2023-01-23T08:55:10.685Z,-0.50
2023-01-23T08:57:37.665Z,-0.40
2023-01-23T09:00:04.842Z,-0.40
2023-01-23T09:02:31.532Z,-0.40
2023-01-23T09:04:58.588Z,-0.40
2023-01-23T09:07:25.237Z,-0.40
2023-01-23T09:09:51.886Z,-0.40
2023-01-23T09:12:18.476Z,-0.40
2023-01-23T09:14:45.068Z,-0.50
2023-01-23T09:17:11.796Z,-0.50
2023-01-23T09:19:38.551Z,-0.50
2023-01-23T09:22:05.191Z,-0.50
2023-01-23T09:24:31.982Z,-0.50
2023-01-23T09:26:58.666Z,-0.40
2023-01-23T09:29:25.417Z,-0.50
2023-01-23T09:31:52.036Z,-0.40
2023-01-23T09:34:18.657Z,-0.50
2023-01-23T09:36:45.304Z,-0.40
2023-01-23T09:39:12.485Z,-0.50
2023-01-23T09:41:40.566Z,-0.50
2023-01-23T09:44:36.277Z,-0.40
2023-01-23T09:47:12.932Z,-0.30
2023-01-23T09:49:58.134Z,-0.30
2023-01-23T09:52:33.273Z,-0.20
2023-01-23T09:55:12.079Z,-0.40
2023-01-23T09:57:45.637Z,-0.40
2023-01-23T10:00:32.895Z,-0.40
2023-01-23T10:03:11.008Z,-0.40
2023-01-23T10:05:40.292Z,-0.40
2023-01-23T10:08:17.067Z,-0.50
2023-01-23T10:10:55.689Z,-0.40
2023-01-23T10:13:40.785Z,-0.30
2023-01-23T10:16:26.695Z,-0.30
2023-01-23T10:19:29.842Z,-0.30
2023-01-23T10:22:01.466Z,-0.30
2023-01-23T10:24:40.888Z,-0.30
2023-01-23T10:27:30.960Z,-0.20
2023-01-23T10:30:13.711Z,-0.10
2023-01-23T10:33:09.862Z,-0.20
2023-01-23T10:35:51.824Z,-0.30
2023-01-23T10:38:39.424Z,-0.20
2023-01-23T10:41:14.717Z,-0.10
2023-01-23T10:43:46.115Z,0.00
2023-01-23T10:46:15.721Z,-0.10
2023-01-23T10:48:50.979Z,-0.20
2023-01-23T10:51:33.713Z,-0.10
2023-01-23T10:54:17.033Z,-0.10
2023-01-23T10:57:04.711Z,-0.10
2023-01-23T11:00:07.744Z,0.00
2023-01-23T11:02:37.232Z,-0.10
2023-01-23T11:05:50.658Z,0.00
2023-01-23T11:08:36.432Z,0.00
2023-01-23T11:11:15.367Z,0.10
2023-01-23T11:13:44.000Z,0.30
2023-01-23T11:16:22.310Z,0.30
2023-01-23T11:19:03.061Z,0.30
2023-01-23T11:21:36.855Z,0.40
2023-01-23T11:24:38.992Z,0.30
2023-01-23T11:27:19.381Z,0.30
2023-01-23T11:30:08.061Z,0.30
2023-01-23T11:32:45.276Z,0.40
2023-01-23T11:35:14.642Z,0.40
2023-01-23T11:37:42.017Z,0.40
2023-01-23T11:40:15.085Z,0.40
2023-01-23T11:42:43.315Z,0.50
2023-01-23T11:45:28.046Z,0.40
2023-01-23T11:48:23.839Z,0.60
2023-01-23T11:51:11.737Z,0.40
2023-01-23T11:53:57.955Z,0.50
2023-01-23T11:56:43.842Z,0.60
2023-01-23T11:59:45.703Z,0.60
2023-01-23T12:02:38.354Z,0.60
2023-01-23T12:05:08.525Z,0.60
2023-01-23T12:07:53.971Z,0.60
2023-01-23T12:10:27.148Z,0.80
2023-01-23T12:13:13.607Z,0.70
2023-01-23T12:16:04.846Z,0.70
2023-01-23T12:19:01.614Z,0.80
2023-01-23T12:21:45.328Z,0.80
2023-01-23T12:24:45.584Z,0.80
2023-01-23T12:27:40.511Z,0.70
2023-01-23T12:30:40.545Z,0.60
2023-01-23T12:33:39.600Z,0.70
2023-01-23T12:36:24.788Z,0.80
2023-01-23T12:39:20.379Z,0.80
2023-01-23T12:41:53.701Z,0.80
2023-01-23T12:44:29.897Z,0.90
2023-01-23T12:47:08.949Z,0.90
2023-01-23T12:49:47.226Z,1.00
2023-01-23T12:52:25.637Z,0.90
2023-01-23T12:55:04.221Z,0.80
2023-01-23T12:58:00.171Z,0.70
2023-01-23T13:00:38.595Z,0.70
2023-01-23T13:03:46.459Z,0.70
2023-01-23T13:06:50.602Z,0.70
2023-01-23T13:09:35.974Z,0.70
2023-01-23T13:12:22.568Z,0.60
2023-01-23T13:15:30.868Z,0.60
2023-01-23T13:17:57.877Z,0.70
2023-01-23T13:21:13.256Z,0.60
2023-01-23T13:23:40.005Z,0.60
2023-01-23T13:26:15.737Z,0.60
2023-01-23T13:29:02.006Z,0.70
2023-01-23T13:31:45.099Z,0.60
2023-01-23T13:34:17.818Z,0.50
2023-01-23T13:36:46.209Z,0.40
2023-01-23T13:39:23.586Z,0.50
2023-01-23T13:42:11.536Z,0.50
2023-01-23T13:45:16.395Z,0.50
2023-01-23T14:22:40.483Z,0.50
2023-01-23T14:25:16.979Z,0.40
2023-01-23T14:27:52.556Z,0.50
2023-01-23T14:30:24.937Z,0.50
2023-01-23T14:32:51.630Z,0.50
2023-01-23T14:35:28.033Z,0.60
2023-01-23T14:37:57.729Z,0.60
2023-01-23T14:40:28.322Z,0.70
2023-01-23T14:43:02.160Z,0.70
2023-01-23T14:45:33.113Z,0.70
2023-01-23T14:48:05.911Z,0.80
2023-01-23T14:50:33.370Z,0.70
2023-01-23T14:53:13.606Z,0.70
2023-01-23T14:55:44.597Z,0.70
2023-01-23T14:58:21.975Z,0.70
2023-01-23T15:00:50.220Z,0.70
2023-01-23T15:03:43.406Z,0.70
2023-01-23T15:06:18.828Z,0.80
2023-01-23T15:08:46.608Z,0.70
2023-01-23T15:11:14.021Z,0.80
2023-01-23T15:13:51.558Z,0.80
2023-01-23T15:16:21.367Z,0.80
2023-01-23T15:19:18.999Z,0.80
2023-01-23T15:21:45.572Z,0.80
2023-01-23T15:24:12.169Z,0.80
2023-01-23T15:26:59.337Z,0.90
2023-01-23T15:29:27.100Z,0.80
2023-01-23T15:31:57.886Z,0.90
2023-01-23T15:34:33.391Z,0.90
2023-01-23T15:37:05.345Z,0.80
2023-01-23T15:39:39.834Z,0.80
2023-01-23T15:42:12.556Z,0.80
2023-01-23T15:44:40.327Z,0.80
2023-01-23T15:47:07.043Z,0.80
2023-01-23T15:49:35.725Z,0.80
2023-01-23T15:52:13.801Z,0.80
2023-01-23T15:54:40.460Z,0.80
2023-01-23T15:57:08.773Z,0.80
2023-01-23T15:59:36.789Z,0.90
2023-01-23T16:02:05.141Z,0.80
2023-01-23T16:04:32.247Z,0.70
2023-01-23T16:07:06.438Z,0.80
2023-01-23T16:09:36.637Z,0.80
2023-01-23T16:12:03.772Z,0.90
2023-01-23T16:14:30.384Z,0.90
2023-01-23T16:17:04.702Z,0.80
2023-01-23T16:19:38.200Z,0.80
2023-01-23T16:22:05.889Z,0.90
2023-01-23T16:24:39.440Z,0.80
2023-01-23T16:27:06.969Z,0.80
2023-01-23T16:29:34.472Z,0.70
2023-01-23T16:32:02.497Z,0.80
2023-01-23T16:34:29.596Z,1.00
2023-01-23T16:36:58.496Z,0.90
2023-01-23T16:39:31.981Z,0.90
2023-01-23T16:41:59.304Z,0.90
2023-01-23T16:44:27.305Z,0.90
2023-01-23T16:46:54.029Z,0.90
2023-01-23T16:49:21.179Z,0.80
2023-01-23T16:52:00.187Z,0.80
2023-01-23T16:54:27.093Z,0.90
2023-01-23T16:56:56.843Z,0.90
2023-01-23T16:59:40.436Z,0.80
2023-01-23T17:02:19.979Z,0.80
2023-01-23T17:04:46.619Z,0.90
2023-01-23T17:07:18.531Z,0.90
2023-01-23T17:09:45.922Z,1.00
2023-01-23T17:12:16.397Z,1.00
2023-01-23T17:14:45.546Z,1.00
2023-01-23T17:17:16.217Z,1.00
2023-01-23T17:19:43.387Z,1.00
2023-01-23T17:22:20.494Z,1.00
2023-01-23T17:24:47.071Z,1.10
2023-01-23T17:27:13.630Z,1.00
2023-01-23T17:29:40.214Z,1.00
2023-01-23T17:32:07.045Z,1.10
2023-01-23T17:34:45.199Z,1.20
2023-01-23T17:37:21.407Z,1.20
2023-01-23T17:39:48.222Z,1.20
2023-01-23T17:42:15.387Z,1.20
2023-01-23T17:44:41.932Z,1.30
2023-01-23T17:47:12.402Z,1.20
2023-01-23T17:49:39.481Z,1.20
2023-01-23T17:52:06.569Z,1.10
2023-01-23T17:54:33.268Z,1.10
2023-01-23T17:56:59.877Z,1.10
2023-01-23T17:59:26.503Z,1.10
2023-01-23T18:01:53.321Z,1.20
2023-01-23T18:04:22.097Z,1.20
2023-01-23T18:06:49.990Z,1.20
2023-01-23T18:09:18.580Z,1.30
2023-01-23T18:11:51.992Z,1.30
2023-01-23T18:14:41.777Z,1.30
2023-01-23T18:17:36.346Z,1.30
2023-01-23T18:20:22.645Z,1.20
2023-01-23T18:22:50.197Z,1.40
2023-01-23T18:25:19.177Z,1.30
2023-01-23T18:27:50.383Z,1.40
2023-01-23T18:30:38.174Z,1.30
2023-01-23T18:33:23.673Z,1.30
2023-01-23T18:36:05.943Z,1.40
2023-01-23T18:38:42.012Z,1.40
2023-01-23T18:41:16.729Z,1.30
2023-01-23T18:43:55.703Z,1.40
2023-01-23T18:46:24.084Z,1.40
2023-01-23T18:48:50.966Z,1.50
2023-01-23T18:51:27.321Z,1.50
2023-01-23T18:53:56.622Z,1.50
2023-01-23T18:56:32.279Z,1.40
2023-01-23T18:59:16.955Z,1.50
2023-01-23T19:01:55.469Z,1.40
2023-01-23T19:04:34.560Z,1.40
2023-01-23T19:07:01.550Z,1.40
2023-01-23T19:09:33.200Z,1.50
2023-01-23T19:12:27.055Z,1.50
2023-01-23T19:15:18.784Z,1.60
2023-01-23T19:17:58.434Z,1.50
2023-01-23T19:20:32.862Z,1.50
2023-01-23T19:23:30.977Z,1.50
2023-01-23T19:25:57.833Z,1.60
2023-01-23T19:28:24.598Z,1.50
2023-01-23T19:30:51.490Z,1.60
2023-01-23T19:33:19.362Z,1.60
2023-01-23T19:35:46.865Z,1.50
2023-01-23T19:38:14.914Z,1.50
2023-01-23T19:40:42.643Z,1.50
2023-01-23T19:43:18.746Z,1.60
2023-01-23T19:45:46.396Z,1.60
2023-01-23T19:48:13.685Z,1.50
2023-01-23T19:50:40.841Z,1.60
2023-01-23T19:53:07.827Z,1.60
2023-01-23T19:55:38.108Z,1.50
2023-01-23T19:58:04.910Z,1.60
2023-01-23T20:00:36.027Z,1.60
2023-01-23T20:03:04.707Z,1.60
2023-01-23T20:05:31.839Z,1.50
2023-01-23T20:07:58.708Z,1.50
2023-01-23T20:10:25.325Z,1.50
2023-01-23T20:12:52.421Z,1.50
2023-01-23T20:15:21.791Z,1.50
2023-01-23T20:17:49.155Z,1.60
2023-01-23T20:20:16.096Z,1.60
2023-01-23T20:22:43.838Z,1.60
2023-01-23T20:25:12.684Z,1.60
2023-01-23T20:27:40.494Z,1.60
2023-01-23T20:30:11.230Z,1.70
2023-01-23T20:32:38.238Z,1.60
2023-01-23T20:35:05.372Z,1.50
2023-01-23T20:37:32.033Z,1.60
2023-01-23T20:39:58.797Z,1.60
2023-01-23T20:42:25.388Z,1.60
2023-01-23T20:44:51.958Z,1.60
2023-01-23T20:47:18.583Z,1.60
2023-01-23T20:49:45.163Z,1.60
2023-01-23T20:52:30.573Z,1.50
2023-01-23T20:54:57.162Z,1.60
2023-01-23T20:57:23.827Z,1.60
2023-01-23T20:59:50.383Z,1.60
2023-01-23T21:02:23.115Z,1.50
2023-01-23T21:04:50.541Z,1.60
2023-01-23T21:07:17.943Z,1.60
2023-01-23T21:09:45.422Z,1.60
2023-01-23T21:12:12.395Z,1.60
2023-01-23T21:14:39.026Z,1.60
2023-01-23T21:17:06.524Z,1.60
2023-01-23T21:19:33.775Z,1.60
2023-01-23T21:22:00.590Z,1.70
2023-01-23T21:24:27.210Z,1.70
2023-01-23T21:26:54.317Z,1.70
2023-01-23T21:29:21.356Z,1.80
2023-01-23T21:31:48.024Z,1.70
2023-01-23T21:34:15.190Z,1.70
2023-01-23T21:36:43.165Z,1.70
2023-01-23T21:39:13.167Z,1.70
2023-01-23T21:41:39.900Z,1.70
2023-01-23T21:44:06.807Z,1.80
2023-01-23T21:46:33.462Z,1.80
2023-01-23T21:49:00.059Z,1.70
2023-01-23T21:51:28.217Z,1.80
2023-01-23T21:53:55.144Z,1.80
2023-01-23T21:56:23.200Z,1.70
2023-01-23T21:58:50.011Z,1.70
2023-01-23T22:01:54.741Z,1.70
2023-01-23T22:04:24.425Z,1.80
2023-01-23T22:06:56.027Z,1.70
2023-01-23T22:09:26.435Z,1.80
2023-01-23T22:11:53.744Z,1.80
2023-01-23T22:14:20.391Z,1.80
2023-01-23T22:16:49.426Z,1.80
2023-01-23T22:19:18.405Z,1.80
2023-01-23T22:21:46.349Z,1.80
2023-01-23T22:24:13.430Z,1.90
2023-01-23T22:26:40.127Z,1.90
2023-01-23T22:29:06.978Z,1.90
2023-01-23T22:31:33.934Z,1.90
2023-01-23T22:34:00.664Z,1.90
2023-01-23T22:36:27.308Z,1.80
2023-01-23T22:38:54.701Z,1.80
2023-01-23T22:41:22.270Z,1.80
2023-01-23T22:43:56.243Z,1.80
2023-01-23T22:46:23.712Z,1.80
2023-01-23T22:48:50.833Z,1.80
2023-01-23T22:51:24.647Z,1.70
2023-01-23T22:53:53.169Z,1.70
2023-01-23T22:56:20.076Z,1.70
2023-01-23T22:58:48.117Z,1.70
2023-01-23T23:01:14.897Z,1.80
2023-01-23T23:03:41.651Z,1.80
2023-01-23T23:06:10.966Z,1.70
2023-01-23T23:08:38.166Z,1.80
2023-01-23T23:11:12.237Z,1.70
2023-01-23T23:13:40.167Z,1.70
2023-01-23T23:16:09.427Z,1.80
2023-01-23T23:18:38.268Z,1.80
2023-01-23T23:21:08.704Z,1.80
2023-01-23T23:23:35.950Z,1.80
2023-01-23T23:26:04.582Z,1.70
2023-01-23T23:28:32.408Z,1.70
2023-01-23T23:30:59.163Z,1.70
2023-01-23T23:33:27.034Z,1.70
2023-01-23T23:35:54.006Z,1.70
2023-01-23T23:38:21.080Z,1.80
2023-01-23T23:40:58.344Z,1.70
2023-01-23T23:43:25.367Z,1.70
2023-01-23T23:45:53.914Z,1.70
2023-01-23T23:48:21.975Z,1.60
2023-01-23T23:50:48.705Z,1.60
2023-01-23T23:53:15.979Z,1.60
2023-01-23T23:55:42.612Z,1.60
2023-01-23T23:58:09.604Z,1.70
